sensor_id;sensor_type;location;lat;lon;timestamp;pressure;altitude;pressure_sealevel;temperature
74536;BMP180;63013;51.104;-115.370;2023-07-13T00:01:55;87057.80;;;21.90
74536;BMP180;63013;51.104;-115.370;2023-07-13T00:04:24;87063.00;;;21.90
74536;BMP180;63013;51.104;-115.370;2023-07-13T00:06:53;87055.40;;;21.90
74536;BMP180;63013;51.104;-115.370;2023-07-13T00:09:20;87058.40;;;21.90
74536;BMP180;63013;51.104;-115.370;2023-07-13T00:11:55;87060.80;;;21.90
74536;BMP180;63013;51.104;-115.370;2023-07-13T00:14:24;87062.40;;;21.90
74536;BMP180;63013;51.104;-115.370;2023-07-13T00:16:51;87062.20;;;21.90
74536;BMP180;63013;51.104;-115.370;2023-07-13T00:19:19;87063.60;;;21.90
74536;BMP180;63013;51.104;-115.370;2023-07-13T00:21:46;87059.00;;;21.90
74536;BMP180;63013;51.104;-115.370;2023-07-13T00:24:15;87057.00;;;21.94
74536;BMP180;63013;51.104;-115.370;2023-07-13T00:26:48;87060.40;;;21.98
74536;BMP180;63013;51.104;-115.370;2023-07-13T00:29:15;87065.00;;;22.00
74536;BMP180;63013;51.104;-115.370;2023-07-13T00:31:43;87066.80;;;22.00
74536;BMP180;63013;51.104;-115.370;2023-07-13T00:34:11;87067.20;;;22.00
74536;BMP180;63013;51.104;-115.370;2023-07-13T00:36:38;87070.60;;;22.00
74536;BMP180;63013;51.104;-115.370;2023-07-13T00:39:05;87067.20;;;22.00
74536;BMP180;63013;51.104;-115.370;2023-07-13T00:41:32;87072.20;;;22.00
74536;BMP180;63013;51.104;-115.370;2023-07-13T00:43:59;87070.20;;;22.00
74536;BMP180;63013;51.104;-115.370;2023-07-13T00:46:31;87069.60;;;22.00
74536;BMP180;63013;51.104;-115.370;2023-07-13T00:49:09;87069.00;;;22.00
74536;BMP180;63013;51.104;-115.370;2023-07-13T00:54:18;87068.20;;;22.00
74536;BMP180;63013;51.104;-115.370;2023-07-13T00:56:49;87071.60;;;22.00
74536;BMP180;63013;51.104;-115.370;2023-07-13T00:59:20;87076.60;;;22.00
74536;BMP180;63013;51.104;-115.370;2023-07-13T01:01:48;87078.20;;;22.00
74536;BMP180;63013;51.104;-115.370;2023-07-13T01:04:17;87083.40;;;22.06
74536;BMP180;63013;51.104;-115.370;2023-07-13T01:06:45;87085.40;;;22.08
74536;BMP180;63013;51.104;-115.370;2023-07-13T01:09:14;87088.20;;;22.10
74536;BMP180;63013;51.104;-115.370;2023-07-13T01:11:42;87088.20;;;22.10
74536;BMP180;63013;51.104;-115.370;2023-07-13T01:14:11;87084.20;;;22.10
74536;BMP180;63013;51.104;-115.370;2023-07-13T01:16:42;87089.20;;;22.10
74536;BMP180;63013;51.104;-115.370;2023-07-13T01:19:40;87087.80;;;22.10
74536;BMP180;63013;51.104;-115.370;2023-07-13T01:22:13;87089.00;;;22.10
74536;BMP180;63013;51.104;-115.370;2023-07-13T01:24:45;87087.80;;;22.10
74536;BMP180;63013;51.104;-115.370;2023-07-13T01:27:17;87083.20;;;22.10
74536;BMP180;63013;51.104;-115.370;2023-07-13T01:29:45;87084.20;;;22.10
74536;BMP180;63013;51.104;-115.370;2023-07-13T01:32:20;87083.60;;;22.10
74536;BMP180;63013;51.104;-115.370;2023-07-13T01:34:52;87086.00;;;22.10
74536;BMP180;63013;51.104;-115.370;2023-07-13T01:37:22;87082.60;;;22.10
74536;BMP180;63013;51.104;-115.370;2023-07-13T01:39:50;87086.60;;;22.10
74536;BMP180;63013;51.104;-115.370;2023-07-13T01:42:16;87088.80;;;22.16
74536;BMP180;63013;51.104;-115.370;2023-07-13T01:44:44;87088.60;;;22.18
74536;BMP180;63013;51.104;-115.370;2023-07-13T01:47:11;87090.80;;;22.20
74536;BMP180;63013;51.104;-115.370;2023-07-13T01:49:38;87096.20;;;22.20
74536;BMP180;63013;51.104;-115.370;2023-07-13T01:52:05;87099.20;;;22.20
74536;BMP180;63013;51.104;-115.370;2023-07-13T01:54:32;87099.80;;;22.20
74536;BMP180;63013;51.104;-115.370;2023-07-13T01:57:00;87102.00;;;22.20
74536;BMP180;63013;51.104;-115.370;2023-07-13T01:59:27;87103.00;;;22.20
74536;BMP180;63013;51.104;-115.370;2023-07-13T02:01:54;87106.40;;;22.20
74536;BMP180;63013;51.104;-115.370;2023-07-13T02:04:21;87103.20;;;22.20
74536;BMP180;63013;51.104;-115.370;2023-07-13T02:06:48;87106.80;;;22.20
74536;BMP180;63013;51.104;-115.370;2023-07-13T02:09:15;87106.40;;;22.20
74536;BMP180;63013;51.104;-115.370;2023-07-13T02:11:42;87102.20;;;22.20
74536;BMP180;63013;51.104;-115.370;2023-07-13T02:14:10;87099.60;;;22.20
74536;BMP180;63013;51.104;-115.370;2023-07-13T02:16:36;87098.40;;;22.20
74536;BMP180;63013;51.104;-115.370;2023-07-13T02:19:03;87103.60;;;22.20
74536;BMP180;63013;51.104;-115.370;2023-07-13T02:21:30;87102.60;;;22.20
74536;BMP180;63013;51.104;-115.370;2023-07-13T02:23:57;87108.80;;;22.22
74536;BMP180;63013;51.104;-115.370;2023-07-13T02:26:24;87107.60;;;22.20
74536;BMP180;63013;51.104;-115.370;2023-07-13T02:28:51;87107.00;;;22.20
74536;BMP180;63013;51.104;-115.370;2023-07-13T02:31:19;87107.80;;;22.20
74536;BMP180;63013;51.104;-115.370;2023-07-13T02:33:46;87108.00;;;22.20
74536;BMP180;63013;51.104;-115.370;2023-07-13T02:36:13;87112.20;;;22.24
74536;BMP180;63013;51.104;-115.370;2023-07-13T02:38:43;87114.20;;;22.26
74536;BMP180;63013;51.104;-115.370;2023-07-13T02:41:10;87117.80;;;22.24
74536;BMP180;63013;51.104;-115.370;2023-07-13T02:43:40;87120.00;;;22.28
74536;BMP180;63013;51.104;-115.370;2023-07-13T02:46:07;87115.80;;;22.22
74536;BMP180;63013;51.104;-115.370;2023-07-13T02:48:35;87118.20;;;22.28
74536;BMP180;63013;51.104;-115.370;2023-07-13T02:51:03;87114.60;;;22.30
74536;BMP180;63013;51.104;-115.370;2023-07-13T02:53:30;87117.40;;;22.30
74536;BMP180;63013;51.104;-115.370;2023-07-13T02:55:58;87116.40;;;22.30
74536;BMP180;63013;51.104;-115.370;2023-07-13T02:58:25;87115.60;;;22.30
74536;BMP180;63013;51.104;-115.370;2023-07-13T03:00:52;87116.00;;;22.30
74536;BMP180;63013;51.104;-115.370;2023-07-13T03:03:20;87110.40;;;22.30
74536;BMP180;63013;51.104;-115.370;2023-07-13T03:05:47;87109.20;;;22.30
74536;BMP180;63013;51.104;-115.370;2023-07-13T03:08:16;87112.00;;;22.30
74536;BMP180;63013;51.104;-115.370;2023-07-13T03:10:44;87117.60;;;22.30
74536;BMP180;63013;51.104;-115.370;2023-07-13T03:13:11;87116.20;;;22.30
74536;BMP180;63013;51.104;-115.370;2023-07-13T03:15:38;87121.20;;;22.30
74536;BMP180;63013;51.104;-115.370;2023-07-13T03:18:05;87116.80;;;22.30
74536;BMP180;63013;51.104;-115.370;2023-07-13T03:20:35;87114.60;;;22.30
74536;BMP180;63013;51.104;-115.370;2023-07-13T03:23:04;87117.20;;;22.30
74536;BMP180;63013;51.104;-115.370;2023-07-13T03:25:31;87118.00;;;22.30
74536;BMP180;63013;51.104;-115.370;2023-07-13T03:27:58;87113.20;;;22.30
74536;BMP180;63013;51.104;-115.370;2023-07-13T03:30:25;87112.20;;;22.30
74536;BMP180;63013;51.104;-115.370;2023-07-13T03:32:52;87117.60;;;22.30
74536;BMP180;63013;51.104;-115.370;2023-07-13T03:35:19;87111.40;;;22.30
74536;BMP180;63013;51.104;-115.370;2023-07-13T03:37:46;87113.60;;;22.30
74536;BMP180;63013;51.104;-115.370;2023-07-13T03:40:13;87110.60;;;22.30
74536;BMP180;63013;51.104;-115.370;2023-07-13T03:42:40;87109.60;;;22.30
74536;BMP180;63013;51.104;-115.370;2023-07-13T03:45:08;87112.80;;;22.30
74536;BMP180;63013;51.104;-115.370;2023-07-13T03:47:36;87113.40;;;22.32
74536;BMP180;63013;51.104;-115.370;2023-07-13T03:50:04;87114.80;;;22.34
74536;BMP180;63013;51.104;-115.370;2023-07-13T03:52:31;87122.00;;;22.36
74536;BMP180;63013;51.104;-115.370;2023-07-13T03:54:58;87123.40;;;22.36
74536;BMP180;63013;51.104;-115.370;2023-07-13T03:57:25;87133.20;;;22.34
74536;BMP180;63013;51.104;-115.370;2023-07-13T03:59:52;87135.00;;;22.38
74536;BMP180;63013;51.104;-115.370;2023-07-13T04:02:20;87143.00;;;22.32
74536;BMP180;63013;51.104;-115.370;2023-07-13T04:04:47;87145.80;;;22.34
74536;BMP180;63013;51.104;-115.370;2023-07-13T04:07:15;87139.20;;;22.30
74536;BMP180;63013;51.104;-115.370;2023-07-13T04:09:42;87143.20;;;22.30
74536;BMP180;63013;51.104;-115.370;2023-07-13T04:12:09;87148.60;;;22.30
74536;BMP180;63013;51.104;-115.370;2023-07-13T04:14:36;87152.80;;;22.30
74536;BMP180;63013;51.104;-115.370;2023-07-13T04:17:04;87157.40;;;22.30
74536;BMP180;63013;51.104;-115.370;2023-07-13T04:19:31;87159.60;;;22.30
74536;BMP180;63013;51.104;-115.370;2023-07-13T04:21:57;87154.80;;;22.30
74536;BMP180;63013;51.104;-115.370;2023-07-13T04:24:24;87156.40;;;22.30
74536;BMP180;63013;51.104;-115.370;2023-07-13T04:26:52;87163.00;;;22.30
74536;BMP180;63013;51.104;-115.370;2023-07-13T04:29:19;87167.80;;;22.30
74536;BMP180;63013;51.104;-115.370;2023-07-13T04:31:47;87171.80;;;22.30
74536;BMP180;63013;51.104;-115.370;2023-07-13T04:34:14;87170.80;;;22.30
74536;BMP180;63013;51.104;-115.370;2023-07-13T04:36:43;87170.00;;;22.30
74536;BMP180;63013;51.104;-115.370;2023-07-13T04:39:09;87167.00;;;22.30
74536;BMP180;63013;51.104;-115.370;2023-07-13T04:41:37;87170.20;;;22.30
74536;BMP180;63013;51.104;-115.370;2023-07-13T04:44:04;87164.20;;;22.30
74536;BMP180;63013;51.104;-115.370;2023-07-13T04:46:31;87172.40;;;22.30
74536;BMP180;63013;51.104;-115.370;2023-07-13T04:48:58;87171.00;;;22.30
74536;BMP180;63013;51.104;-115.370;2023-07-13T04:51:25;87166.80;;;22.30
74536;BMP180;63013;51.104;-115.370;2023-07-13T04:53:53;87174.20;;;22.30
74536;BMP180;63013;51.104;-115.370;2023-07-13T04:56:20;87171.60;;;22.30
74536;BMP180;63013;51.104;-115.370;2023-07-13T04:58:47;87173.00;;;22.30
74536;BMP180;63013;51.104;-115.370;2023-07-13T05:01:14;87173.40;;;22.30
74536;BMP180;63013;51.104;-115.370;2023-07-13T05:03:41;87170.40;;;22.30
74536;BMP180;63013;51.104;-115.370;2023-07-13T05:06:08;87171.40;;;22.30
74536;BMP180;63013;51.104;-115.370;2023-07-13T05:08:40;87170.80;;;22.30
74536;BMP180;63013;51.104;-115.370;2023-07-13T05:11:07;87173.80;;;22.30
74536;BMP180;63013;51.104;-115.370;2023-07-13T05:13:35;87174.00;;;22.30
74536;BMP180;63013;51.104;-115.370;2023-07-13T05:16:04;87175.80;;;22.30
74536;BMP180;63013;51.104;-115.370;2023-07-13T05:18:34;87178.20;;;22.30
74536;BMP180;63013;51.104;-115.370;2023-07-13T05:21:09;87178.00;;;22.30
74536;BMP180;63013;51.104;-115.370;2023-07-13T05:23:37;87181.60;;;22.30
74536;BMP180;63013;51.104;-115.370;2023-07-13T05:26:04;87187.60;;;22.30
74536;BMP180;63013;51.104;-115.370;2023-07-13T05:28:32;87185.60;;;22.30
74536;BMP180;63013;51.104;-115.370;2023-07-13T05:30:59;87189.40;;;22.30
74536;BMP180;63013;51.104;-115.370;2023-07-13T05:33:27;87192.80;;;22.30
74536;BMP180;63013;51.104;-115.370;2023-07-13T05:35:55;87198.20;;;22.30
74536;BMP180;63013;51.104;-115.370;2023-07-13T05:38:22;87201.60;;;22.26
74536;BMP180;63013;51.104;-115.370;2023-07-13T05:40:50;87209.20;;;22.22
74536;BMP180;63013;51.104;-115.370;2023-07-13T05:43:17;87215.60;;;22.22
74536;BMP180;63013;51.104;-115.370;2023-07-13T05:45:44;87223.40;;;22.20
74536;BMP180;63013;51.104;-115.370;2023-07-13T05:48:11;87230.80;;;22.20
74536;BMP180;63013;51.104;-115.370;2023-07-13T05:50:38;87227.80;;;22.20
74536;BMP180;63013;51.104;-115.370;2023-07-13T05:53:06;87228.20;;;22.20
74536;BMP180;63013;51.104;-115.370;2023-07-13T05:55:33;87237.00;;;22.20
74536;BMP180;63013;51.104;-115.370;2023-07-13T05:58:01;87234.80;;;22.20
74536;BMP180;63013;51.104;-115.370;2023-07-13T06:00:28;87236.40;;;22.20
74536;BMP180;63013;51.104;-115.370;2023-07-13T06:02:56;87238.00;;;22.20
74536;BMP180;63013;51.104;-115.370;2023-07-13T06:05:25;87240.60;;;22.20
74536;BMP180;63013;51.104;-115.370;2023-07-13T06:07:54;87243.80;;;22.20
74536;BMP180;63013;51.104;-115.370;2023-07-13T06:10:21;87250.40;;;22.20
74536;BMP180;63013;51.104;-115.370;2023-07-13T06:12:48;87257.60;;;22.20
74536;BMP180;63013;51.104;-115.370;2023-07-13T06:15:15;87263.60;;;22.20
74536;BMP180;63013;51.104;-115.370;2023-07-13T06:17:42;87270.40;;;22.20
74536;BMP180;63013;51.104;-115.370;2023-07-13T06:20:10;87273.20;;;22.20
74536;BMP180;63013;51.104;-115.370;2023-07-13T06:22:37;87278.80;;;22.16
74536;BMP180;63013;51.104;-115.370;2023-07-13T06:25:04;87289.20;;;22.10
74536;BMP180;63013;51.104;-115.370;2023-07-13T06:27:32;87292.20;;;22.10
74536;BMP180;63013;51.104;-115.370;2023-07-13T06:29:58;87295.20;;;22.10
74536;BMP180;63013;51.104;-115.370;2023-07-13T06:32:26;87305.20;;;22.10
74536;BMP180;63013;51.104;-115.370;2023-07-13T06:34:53;87311.80;;;22.10
74536;BMP180;63013;51.104;-115.370;2023-07-13T06:37:20;87317.80;;;22.10
74536;BMP180;63013;51.104;-115.370;2023-07-13T06:39:47;87326.60;;;22.10
74536;BMP180;63013;51.104;-115.370;2023-07-13T06:42:16;87333.80;;;22.10
74536;BMP180;63013;51.104;-115.370;2023-07-13T06:44:44;87343.20;;;22.10
74536;BMP180;63013;51.104;-115.370;2023-07-13T06:47:11;87351.40;;;22.10
74536;BMP180;63013;51.104;-115.370;2023-07-13T06:49:38;87360.80;;;22.10
74536;BMP180;63013;51.104;-115.370;2023-07-13T06:52:06;87365.60;;;22.06
74536;BMP180;63013;51.104;-115.370;2023-07-13T06:54:33;87370.80;;;22.04
74536;BMP180;63013;51.104;-115.370;2023-07-13T06:57:01;87377.80;;;22.04
74536;BMP180;63013;51.104;-115.370;2023-07-13T06:59:28;87380.80;;;22.00
74536;BMP180;63013;51.104;-115.370;2023-07-13T07:01:55;87382.20;;;22.00
74536;BMP180;63013;51.104;-115.370;2023-07-13T07:04:22;87379.60;;;22.00
74536;BMP180;63013;51.104;-115.370;2023-07-13T07:06:50;87373.00;;;22.00
74536;BMP180;63013;51.104;-115.370;2023-07-13T07:09:17;87379.20;;;22.00
74536;BMP180;63013;51.104;-115.370;2023-07-13T07:11:44;87386.00;;;22.00
74536;BMP180;63013;51.104;-115.370;2023-07-13T07:14:11;87390.80;;;22.00
74536;BMP180;63013;51.104;-115.370;2023-07-13T07:16:38;87393.80;;;22.00
74536;BMP180;63013;51.104;-115.370;2023-07-13T07:19:05;87396.80;;;22.00
74536;BMP180;63013;51.104;-115.370;2023-07-13T07:21:32;87399.20;;;22.00
74536;BMP180;63013;51.104;-115.370;2023-07-13T07:23:59;87399.20;;;22.00
74536;BMP180;63013;51.104;-115.370;2023-07-13T07:26:26;87400.00;;;22.00
74536;BMP180;63013;51.104;-115.370;2023-07-13T07:28:54;87409.00;;;21.98
74536;BMP180;63013;51.104;-115.370;2023-07-13T07:31:21;87408.60;;;21.96
74536;BMP180;63013;51.104;-115.370;2023-07-13T07:33:48;87415.20;;;21.90
74536;BMP180;63013;51.104;-115.370;2023-07-13T07:36:17;87419.80;;;21.90
74536;BMP180;63013;51.104;-115.370;2023-07-13T07:38:44;87426.80;;;21.90
74536;BMP180;63013;51.104;-115.370;2023-07-13T07:41:12;87427.20;;;21.90
74536;BMP180;63013;51.104;-115.370;2023-07-13T07:43:39;87433.00;;;21.90
74536;BMP180;63013;51.104;-115.370;2023-07-13T07:46:06;87431.60;;;21.90
74536;BMP180;63013;51.104;-115.370;2023-07-13T07:48:34;87433.60;;;21.90
74536;BMP180;63013;51.104;-115.370;2023-07-13T07:51:00;87432.60;;;21.90
74536;BMP180;63013;51.104;-115.370;2023-07-13T07:53:28;87430.00;;;21.90
74536;BMP180;63013;51.104;-115.370;2023-07-13T07:55:55;87435.40;;;21.90
74536;BMP180;63013;51.104;-115.370;2023-07-13T07:58:22;87433.40;;;21.90
74536;BMP180;63013;51.104;-115.370;2023-07-13T08:00:49;87435.20;;;21.90
74536;BMP180;63013;51.104;-115.370;2023-07-13T08:03:17;87430.60;;;21.90
74536;BMP180;63013;51.104;-115.370;2023-07-13T08:05:43;87429.00;;;21.90
74536;BMP180;63013;51.104;-115.370;2023-07-13T08:08:11;87424.60;;;21.86
74536;BMP180;63013;51.104;-115.370;2023-07-13T08:10:37;87427.40;;;21.84
74536;BMP180;63013;51.104;-115.370;2023-07-13T08:13:05;87434.00;;;21.82
74536;BMP180;63013;51.104;-115.370;2023-07-13T08:15:32;87432.00;;;21.80
74536;BMP180;63013;51.104;-115.370;2023-07-13T08:17:59;87429.20;;;21.80
74536;BMP180;63013;51.104;-115.370;2023-07-13T08:20:26;87430.40;;;21.80
74536;BMP180;63013;51.104;-115.370;2023-07-13T08:22:53;87426.60;;;21.80
74536;BMP180;63013;51.104;-115.370;2023-07-13T08:25:20;87426.80;;;21.80
74536;BMP180;63013;51.104;-115.370;2023-07-13T08:27:48;87423.40;;;21.80
74536;BMP180;63013;51.104;-115.370;2023-07-13T08:30:15;87418.60;;;21.80
74536;BMP180;63013;51.104;-115.370;2023-07-13T08:32:42;87420.20;;;21.80
74536;BMP180;63013;51.104;-115.370;2023-07-13T08:35:09;87421.20;;;21.80
74536;BMP180;63013;51.104;-115.370;2023-07-13T08:37:36;87417.60;;;21.80
74536;BMP180;63013;51.104;-115.370;2023-07-13T08:40:03;87417.80;;;21.80
74536;BMP180;63013;51.104;-115.370;2023-07-13T08:42:54;87418.00;;;21.80
74536;BMP180;63013;51.104;-115.370;2023-07-13T08:46:31;87414.00;;;21.80
74536;BMP180;63013;51.104;-115.370;2023-07-13T08:48:27;87418.00;;;21.80
74536;BMP180;63013;51.104;-115.370;2023-07-13T08:51:20;87414.80;;;21.80
74536;BMP180;63013;51.104;-115.370;2023-07-13T08:53:57;87414.60;;;21.80
74536;BMP180;63013;51.104;-115.370;2023-07-13T08:56:30;87412.00;;;21.80
74536;BMP180;63013;51.104;-115.370;2023-07-13T08:59:18;87415.00;;;21.80
74536;BMP180;63013;51.104;-115.370;2023-07-13T09:02:26;87415.40;;;21.78
74536;BMP180;63013;51.104;-115.370;2023-07-13T09:05:17;87419.20;;;21.74
74536;BMP180;63013;51.104;-115.370;2023-07-13T09:10:36;87416.40;;;21.70
74536;BMP180;63013;51.104;-115.370;2023-07-13T09:13:43;87420.20;;;21.70
74536;BMP180;63013;51.104;-115.370;2023-07-13T09:16:15;87417.20;;;21.70
74536;BMP180;63013;51.104;-115.370;2023-07-13T09:18:47;87416.80;;;21.70
74536;BMP180;63013;51.104;-115.370;2023-07-13T09:21:37;87414.00;;;21.70
74536;BMP180;63013;51.104;-115.370;2023-07-13T09:27:39;87402.60;;;21.70
74536;BMP180;63013;51.104;-115.370;2023-07-13T09:32:51;87406.20;;;21.70
74536;BMP180;63013;51.104;-115.370;2023-07-13T09:35:29;87399.80;;;21.70
74536;BMP180;63013;51.104;-115.370;2023-07-13T09:38:17;87397.00;;;21.68
74536;BMP180;63013;51.104;-115.370;2023-07-13T09:41:37;87393.80;;;21.66
74536;BMP180;63013;51.104;-115.370;2023-07-13T09:44:15;87386.80;;;21.62
74536;BMP180;63013;51.104;-115.370;2023-07-13T09:46:56;87379.20;;;21.60
74536;BMP180;63013;51.104;-115.370;2023-07-13T09:49:43;87371.60;;;21.60
74536;BMP180;63013;51.104;-115.370;2023-07-13T09:52:16;87371.80;;;21.60
74536;BMP180;63013;51.104;-115.370;2023-07-13T09:54:50;87370.20;;;21.60
74536;BMP180;63013;51.104;-115.370;2023-07-13T09:57:23;87360.40;;;21.60
74536;BMP180;63013;51.104;-115.370;2023-07-13T09:59:54;87364.20;;;21.60
74536;BMP180;63013;51.104;-115.370;2023-07-13T10:02:33;87362.40;;;21.60
74536;BMP180;63013;51.104;-115.370;2023-07-13T10:05:14;87366.40;;;21.60
74536;BMP180;63013;51.104;-115.370;2023-07-13T10:07:47;87369.60;;;21.60
74536;BMP180;63013;51.104;-115.370;2023-07-13T10:10:18;87372.20;;;21.60
74536;BMP180;63013;51.104;-115.370;2023-07-13T10:12:47;87368.60;;;21.60
74536;BMP180;63013;51.104;-115.370;2023-07-13T10:15:22;87367.20;;;21.60
74536;BMP180;63013;51.104;-115.370;2023-07-13T10:17:56;87369.20;;;21.60
74536;BMP180;63013;51.104;-115.370;2023-07-13T10:20:25;87368.60;;;21.50
74536;BMP180;63013;51.104;-115.370;2023-07-13T10:23:05;87368.00;;;21.50
74536;BMP180;63013;51.104;-115.370;2023-07-13T10:25:42;87370.60;;;21.50
74536;BMP180;63013;51.104;-115.370;2023-07-13T10:28:30;87371.60;;;21.50
74536;BMP180;63013;51.104;-115.370;2023-07-13T10:31:01;87370.80;;;21.50
74536;BMP180;63013;51.104;-115.370;2023-07-13T10:33:29;87367.40;;;21.50
74536;BMP180;63013;51.104;-115.370;2023-07-13T10:38:54;87371.20;;;21.50
74536;BMP180;63013;51.104;-115.370;2023-07-13T10:41:26;87374.00;;;21.50
74536;BMP180;63013;51.104;-115.370;2023-07-13T10:43:56;87373.40;;;21.50
74536;BMP180;63013;51.104;-115.370;2023-07-13T10:46:27;87366.80;;;21.50
74536;BMP180;63013;51.104;-115.370;2023-07-13T10:49:02;87365.80;;;21.50
74536;BMP180;63013;51.104;-115.370;2023-07-13T10:51:33;87367.00;;;21.50
74536;BMP180;63013;51.104;-115.370;2023-07-13T10:54:30;87369.00;;;21.50
74536;BMP180;63013;51.104;-115.370;2023-07-13T10:57:17;87368.00;;;21.44
74536;BMP180;63013;51.104;-115.370;2023-07-13T11:00:17;87367.00;;;21.46
74536;BMP180;63013;51.104;-115.370;2023-07-13T11:02:58;87368.00;;;21.46
74536;BMP180;63013;51.104;-115.370;2023-07-13T11:05:33;87363.40;;;21.40
74536;BMP180;63013;51.104;-115.370;2023-07-13T11:10:54;87366.40;;;21.40
74536;BMP180;63013;51.104;-115.370;2023-07-13T11:27:41;87370.00;;;21.40
74536;BMP180;63013;51.104;-115.370;2023-07-13T11:33:25;87367.00;;;21.40
74536;BMP180;63013;51.104;-115.370;2023-07-13T11:36:05;87370.00;;;21.40
74536;BMP180;63013;51.104;-115.370;2023-07-13T11:38:40;87371.00;;;21.40
74536;BMP180;63013;51.104;-115.370;2023-07-13T11:41:21;87367.20;;;21.40
74536;BMP180;63013;51.104;-115.370;2023-07-13T11:44:05;87368.40;;;21.34
74536;BMP180;63013;51.104;-115.370;2023-07-13T11:46:32;87370.60;;;21.32
74536;BMP180;63013;51.104;-115.370;2023-07-13T11:48:59;87370.20;;;21.32
74536;BMP180;63013;51.104;-115.370;2023-07-13T11:51:35;87373.80;;;21.30
74536;BMP180;63013;51.104;-115.370;2023-07-13T11:54:18;87375.20;;;21.30
74536;BMP180;63013;51.104;-115.370;2023-07-13T11:56:47;87376.60;;;21.30
74536;BMP180;63013;51.104;-115.370;2023-07-13T11:59:16;87380.80;;;21.30
74536;BMP180;63013;51.104;-115.370;2023-07-13T12:01:51;87377.20;;;21.30
74536;BMP180;63013;51.104;-115.370;2023-07-13T12:04:29;87379.20;;;21.30
74536;BMP180;63013;51.104;-115.370;2023-07-13T12:07:15;87381.00;;;21.30
74536;BMP180;63013;51.104;-115.370;2023-07-13T12:09:43;87380.80;;;21.30
74536;BMP180;63013;51.104;-115.370;2023-07-13T12:12:18;87382.80;;;21.30
74536;BMP180;63013;51.104;-115.370;2023-07-13T12:14:45;87383.00;;;21.30
74536;BMP180;63013;51.104;-115.370;2023-07-13T12:17:24;87380.20;;;21.30
74536;BMP180;63013;51.104;-115.370;2023-07-13T12:19:52;87380.80;;;21.30
74536;BMP180;63013;51.104;-115.370;2023-07-13T12:22:21;87380.40;;;21.30
74536;BMP180;63013;51.104;-115.370;2023-07-13T12:24:49;87377.40;;;21.30
74536;BMP180;63013;51.104;-115.370;2023-07-13T12:27:24;87372.20;;;21.30
74536;BMP180;63013;51.104;-115.370;2023-07-13T12:30:00;87373.40;;;21.30
74536;BMP180;63013;51.104;-115.370;2023-07-13T12:32:28;87371.80;;;21.26
74536;BMP180;63013;51.104;-115.370;2023-07-13T12:35:16;87374.80;;;21.30
74536;BMP180;63013;51.104;-115.370;2023-07-13T12:37:46;87372.20;;;21.20
74536;BMP180;63013;51.104;-115.370;2023-07-13T12:40:17;87369.40;;;21.20
74536;BMP180;63013;51.104;-115.370;2023-07-13T12:42:52;87369.20;;;21.20
74536;BMP180;63013;51.104;-115.370;2023-07-13T12:45:26;87368.00;;;21.20
74536;BMP180;63013;51.104;-115.370;2023-07-13T12:48:19;87374.20;;;21.20
74536;BMP180;63013;51.104;-115.370;2023-07-13T12:50:50;87372.40;;;21.20
74536;BMP180;63013;51.104;-115.370;2023-07-13T12:53:30;87372.60;;;21.20
74536;BMP180;63013;51.104;-115.370;2023-07-13T12:56:03;87371.40;;;21.20
74536;BMP180;63013;51.104;-115.370;2023-07-13T12:58:38;87371.60;;;21.20
74536;BMP180;63013;51.104;-115.370;2023-07-13T13:01:10;87372.40;;;21.20
74536;BMP180;63013;51.104;-115.370;2023-07-13T13:03:49;87378.60;;;21.20
74536;BMP180;63013;51.104;-115.370;2023-07-13T13:06:21;87376.20;;;21.20
74536;BMP180;63013;51.104;-115.370;2023-07-13T13:08:54;87376.60;;;21.20
74536;BMP180;63013;51.104;-115.370;2023-07-13T13:11:23;87369.40;;;21.20
74536;BMP180;63013;51.104;-115.370;2023-07-13T13:13:53;87364.20;;;21.18
74536;BMP180;63013;51.104;-115.370;2023-07-13T13:18:57;87369.60;;;21.14
74536;BMP180;63013;51.104;-115.370;2023-07-13T13:21:26;87373.00;;;21.10
74536;BMP180;63013;51.104;-115.370;2023-07-13T13:23:53;87373.40;;;21.10
74536;BMP180;63013;51.104;-115.370;2023-07-13T13:26:22;87375.40;;;21.10
74536;BMP180;63013;51.104;-115.370;2023-07-13T13:28:49;87374.00;;;21.10
74536;BMP180;63013;51.104;-115.370;2023-07-13T13:31:16;87373.60;;;21.10
74536;BMP180;63013;51.104;-115.370;2023-07-13T13:33:45;87375.20;;;21.10
74536;BMP180;63013;51.104;-115.370;2023-07-13T13:36:23;87377.20;;;21.10
74536;BMP180;63013;51.104;-115.370;2023-07-13T13:38:51;87382.60;;;21.10
74536;BMP180;63013;51.104;-115.370;2023-07-13T13:41:19;87382.80;;;21.10
74536;BMP180;63013;51.104;-115.370;2023-07-13T13:43:46;87382.80;;;21.10
74536;BMP180;63013;51.104;-115.370;2023-07-13T13:46:20;87386.20;;;21.06
74536;BMP180;63013;51.104;-115.370;2023-07-13T13:48:49;87387.40;;;21.06
74536;BMP180;63013;51.104;-115.370;2023-07-13T13:51:21;87388.80;;;21.02
74536;BMP180;63013;51.104;-115.370;2023-07-13T13:53:49;87385.20;;;21.00
74536;BMP180;63013;51.104;-115.370;2023-07-13T13:56:19;87385.20;;;21.00
74536;BMP180;63013;51.104;-115.370;2023-07-13T13:58:46;87388.60;;;21.00
74536;BMP180;63013;51.104;-115.370;2023-07-13T14:01:19;87390.40;;;21.00
74536;BMP180;63013;51.104;-115.370;2023-07-13T14:03:46;87389.80;;;21.00
74536;BMP180;63013;51.104;-115.370;2023-07-13T14:06:18;87390.60;;;21.00
74536;BMP180;63013;51.104;-115.370;2023-07-13T14:08:45;87388.40;;;21.00
74536;BMP180;63013;51.104;-115.370;2023-07-13T14:11:18;87388.00;;;21.00
74536;BMP180;63013;51.104;-115.370;2023-07-13T14:13:58;87387.20;;;21.00
74536;BMP180;63013;51.104;-115.370;2023-07-13T14:16:32;87387.80;;;21.00
74536;BMP180;63013;51.104;-115.370;2023-07-13T14:19:00;87390.60;;;21.00
74536;BMP180;63013;51.104;-115.370;2023-07-13T14:21:29;87393.20;;;21.00
74536;BMP180;63013;51.104;-115.370;2023-07-13T14:23:57;87389.20;;;21.00
74536;BMP180;63013;51.104;-115.370;2023-07-13T14:26:26;87393.40;;;20.96
74536;BMP180;63013;51.104;-115.370;2023-07-13T14:28:56;87391.40;;;20.94